sensor_id;sensor_type;location;lat;lon;timestamp;P1;durP1;ratioP1;P2;durP2;ratioP2
65759;SDS011;52496;51.082;5.066;2023-06-14T00:01:45;11.82;;;6.55;;
65759;SDS011;52496;51.082;5.066;2023-06-14T00:04:16;11.60;;;5.93;;
65759;SDS011;52496;51.082;5.066;2023-06-14T00:06:49;8.38;;;5.25;;
65759;SDS011;52496;51.082;5.066;2023-06-14T00:09:22;8.50;;;6.07;;
65759;SDS011;52496;51.082;5.066;2023-06-14T00:11:53;10.02;;;6.03;;
65759;SDS011;52496;51.082;5.066;2023-06-14T00:14:24;9.10;;;6.03;;
65759;SDS011;52496;51.082;5.066;2023-06-14T00:16:54;11.27;;;6.28;;
65759;SDS011;52496;51.082;5.066;2023-06-14T00:19:28;13.15;;;6.32;;
65759;SDS011;52496;51.082;5.066;2023-06-14T00:22:00;10.60;;;6.13;;
65759;SDS011;52496;51.082;5.066;2023-06-14T00:24:31;8.65;;;6.22;;
65759;SDS011;52496;51.082;5.066;2023-06-14T00:27:02;11.85;;;6.40;;
65759;SDS011;52496;51.082;5.066;2023-06-14T00:29:33;9.45;;;6.25;;
65759;SDS011;52496;51.082;5.066;2023-06-14T00:32:03;8.48;;;5.82;;
65759;SDS011;52496;51.082;5.066;2023-06-14T00:34:34;9.18;;;5.90;;
65759;SDS011;52496;51.082;5.066;2023-06-14T00:37:05;11.20;;;6.20;;
65759;SDS011;52496;51.082;5.066;2023-06-14T00:39:35;7.80;;;5.68;;
65759;SDS011;52496;51.082;5.066;2023-06-14T00:42:06;12.90;;;6.53;;
65759;SDS011;52496;51.082;5.066;2023-06-14T00:44:37;9.27;;;6.70;;
65759;SDS011;52496;51.082;5.066;2023-06-14T00:47:07;12.20;;;6.97;;
65759;SDS011;52496;51.082;5.066;2023-06-14T00:49:38;9.43;;;6.75;;
65759;SDS011;52496;51.082;5.066;2023-06-14T00:52:08;9.35;;;6.93;;
65759;SDS011;52496;51.082;5.066;2023-06-14T00:54:42;9.80;;;6.70;;
65759;SDS011;52496;51.082;5.066;2023-06-14T00:57:13;10.82;;;7.10;;
65759;SDS011;52496;51.082;5.066;2023-06-14T00:59:44;9.02;;;6.05;;
65759;SDS011;52496;51.082;5.066;2023-06-14T01:02:16;9.68;;;6.43;;
65759;SDS011;52496;51.082;5.066;2023-06-14T01:04:50;8.60;;;6.53;;
65759;SDS011;52496;51.082;5.066;2023-06-14T01:07:33;11.23;;;6.20;;
65759;SDS011;52496;51.082;5.066;2023-06-14T01:15:48;9.32;;;6.68;;
65759;SDS011;52496;51.082;5.066;2023-06-14T01:18:20;14.05;;;7.35;;
65759;SDS011;52496;51.082;5.066;2023-06-14T01:20:51;12.15;;;7.20;;
65759;SDS011;52496;51.082;5.066;2023-06-14T01:23:25;9.10;;;6.50;;
65759;SDS011;52496;51.082;5.066;2023-06-14T01:26:03;10.32;;;7.10;;
65759;SDS011;52496;51.082;5.066;2023-06-14T01:28:35;12.50;;;6.90;;
65759;SDS011;52496;51.082;5.066;2023-06-14T01:31:06;10.10;;;7.00;;
65759;SDS011;52496;51.082;5.066;2023-06-14T01:33:37;15.90;;;8.02;;
65759;SDS011;52496;51.082;5.066;2023-06-14T01:36:08;9.73;;;6.95;;
65759;SDS011;52496;51.082;5.066;2023-06-14T01:38:39;12.75;;;7.13;;
65759;SDS011;52496;51.082;5.066;2023-06-14T01:41:12;11.68;;;7.82;;
65759;SDS011;52496;51.082;5.066;2023-06-14T01:43:45;12.15;;;7.57;;
65759;SDS011;52496;51.082;5.066;2023-06-14T01:46:17;10.85;;;7.30;;
65759;SDS011;52496;51.082;5.066;2023-06-14T01:48:49;9.23;;;7.13;;
65759;SDS011;52496;51.082;5.066;2023-06-14T01:51:20;9.68;;;7.25;;
65759;SDS011;52496;51.082;5.066;2023-06-14T01:53:50;9.27;;;6.50;;
65759;SDS011;52496;51.082;5.066;2023-06-14T01:56:21;10.98;;;7.40;;
65759;SDS011;52496;51.082;5.066;2023-06-14T01:58:51;14.05;;;8.10;;
65759;SDS011;52496;51.082;5.066;2023-06-14T02:01:22;15.95;;;8.13;;
65759;SDS011;52496;51.082;5.066;2023-06-14T02:03:52;10.20;;;6.80;;
65759;SDS011;52496;51.082;5.066;2023-06-14T02:06:23;12.38;;;7.38;;
65759;SDS011;52496;51.082;5.066;2023-06-14T02:08:54;10.57;;;7.57;;
65759;SDS011;52496;51.082;5.066;2023-06-14T02:11:24;10.20;;;7.28;;
65759;SDS011;52496;51.082;5.066;2023-06-14T02:13:55;9.98;;;7.40;;
65759;SDS011;52496;51.082;5.066;2023-06-14T02:16:26;11.00;;;7.63;;
65759;SDS011;52496;51.082;5.066;2023-06-14T02:18:58;10.68;;;7.47;;
65759;SDS011;52496;51.082;5.066;2023-06-14T02:21:29;11.45;;;6.75;;
65759;SDS011;52496;51.082;5.066;2023-06-14T02:23:59;10.85;;;7.28;;
65759;SDS011;52496;51.082;5.066;2023-06-14T02:26:31;9.35;;;7.28;;
65759;SDS011;52496;51.082;5.066;2023-06-14T02:29:03;11.63;;;7.30;;
65759;SDS011;52496;51.082;5.066;2023-06-14T02:31:35;8.23;;;6.47;;
65759;SDS011;52496;51.082;5.066;2023-06-14T02:34:06;9.98;;;7.05;;
65759;SDS011;52496;51.082;5.066;2023-06-14T02:36:40;10.25;;;6.78;;
65759;SDS011;52496;51.082;5.066;2023-06-14T02:39:11;10.25;;;7.13;;
65759;SDS011;52496;51.082;5.066;2023-06-14T02:41:42;13.25;;;7.20;;
65759;SDS011;52496;51.082;5.066;2023-06-14T02:44:13;11.38;;;6.90;;
65759;SDS011;52496;51.082;5.066;2023-06-14T02:46:43;11.40;;;6.80;;
65759;SDS011;52496;51.082;5.066;2023-06-14T02:49:14;11.65;;;7.57;;
65759;SDS011;52496;51.082;5.066;2023-06-14T02:51:44;10.52;;;6.97;;
65759;SDS011;52496;51.082;5.066;2023-06-14T02:54:15;9.73;;;6.53;;
65759;SDS011;52496;51.082;5.066;2023-06-14T02:56:45;11.73;;;7.20;;
65759;SDS011;52496;51.082;5.066;2023-06-14T02:59:16;10.25;;;7.30;;
65759;SDS011;52496;51.082;5.066;2023-06-14T03:01:47;10.60;;;6.65;;
65759;SDS011;52496;51.082;5.066;2023-06-14T03:04:17;10.82;;;7.32;;
65759;SDS011;52496;51.082;5.066;2023-06-14T03:06:47;10.32;;;6.43;;
65759;SDS011;52496;51.082;5.066;2023-06-14T03:09:20;14.38;;;6.97;;
65759;SDS011;52496;51.082;5.066;2023-06-14T03:11:52;11.57;;;7.18;;
65759;SDS011;52496;51.082;5.066;2023-06-14T03:14:22;10.80;;;6.82;;
65759;SDS011;52496;51.082;5.066;2023-06-14T03:16:52;10.35;;;7.00;;
65759;SDS011;52496;51.082;5.066;2023-06-14T03:19:26;12.20;;;8.73;;
65759;SDS011;52496;51.082;5.066;2023-06-14T03:21:57;9.68;;;6.93;;
65759;SDS011;52496;51.082;5.066;2023-06-14T03:24:27;13.20;;;6.82;;
65759;SDS011;52496;51.082;5.066;2023-06-14T03:26:58;12.02;;;7.15;;
65759;SDS011;52496;51.082;5.066;2023-06-14T03:29:29;16.40;;;7.15;;
65759;SDS011;52496;51.082;5.066;2023-06-14T03:32:00;11.07;;;7.38;;
65759;SDS011;52496;51.082;5.066;2023-06-14T03:34:32;15.90;;;8.07;;
65759;SDS011;52496;51.082;5.066;2023-06-14T03:37:02;9.27;;;6.80;;
65759;SDS011;52496;51.082;5.066;2023-06-14T03:39:33;16.02;;;6.82;;
65759;SDS011;52496;51.082;5.066;2023-06-14T03:42:03;9.65;;;6.70;;
65759;SDS011;52496;51.082;5.066;2023-06-14T03:44:35;9.82;;;6.70;;
65759;SDS011;52496;51.082;5.066;2023-06-14T03:47:05;9.20;;;6.60;;
65759;SDS011;52496;51.082;5.066;2023-06-14T03:49:36;10.25;;;7.03;;
65759;SDS011;52496;51.082;5.066;2023-06-14T03:52:06;11.77;;;6.93;;
65759;SDS011;52496;51.082;5.066;2023-06-14T03:54:37;9.90;;;6.00;;
65759;SDS011;52496;51.082;5.066;2023-06-14T03:57:07;16.42;;;6.43;;
65759;SDS011;52496;51.082;5.066;2023-06-14T03:59:38;13.73;;;7.30;;
65759;SDS011;52496;51.082;5.066;2023-06-14T04:02:08;10.38;;;6.53;;
65759;SDS011;52496;51.082;5.066;2023-06-14T04:04:45;10.32;;;6.53;;
65759;SDS011;52496;51.082;5.066;2023-06-14T04:07:16;10.82;;;6.65;;
65759;SDS011;52496;51.082;5.066;2023-06-14T04:09:49;9.82;;;6.25;;
65759;SDS011;52496;51.082;5.066;2023-06-14T04:12:19;9.55;;;6.07;;
65759;SDS011;52496;51.082;5.066;2023-06-14T04:14:50;13.23;;;6.85;;
65759;SDS011;52496;51.082;5.066;2023-06-14T04:17:21;11.52;;;6.55;;
65759;SDS011;52496;51.082;5.066;2023-06-14T04:19:51;10.32;;;6.95;;
65759;SDS011;52496;51.082;5.066;2023-06-14T04:22:22;10.70;;;6.20;;
65759;SDS011;52496;51.082;5.066;2023-06-14T04:24:52;10.70;;;6.68;;
65759;SDS011;52496;51.082;5.066;2023-06-14T04:27:23;14.43;;;7.00;;
65759;SDS011;52496;51.082;5.066;2023-06-14T04:29:55;11.90;;;7.22;;
65759;SDS011;52496;51.082;5.066;2023-06-14T04:32:27;9.30;;;6.50;;
65759;SDS011;52496;51.082;5.066;2023-06-14T04:34:59;10.82;;;6.72;;
65759;SDS011;52496;51.082;5.066;2023-06-14T04:37:32;13.10;;;6.47;;
65759;SDS011;52496;51.082;5.066;2023-06-14T04:40:03;10.02;;;6.93;;
65759;SDS011;52496;51.082;5.066;2023-06-14T04:42:36;12.32;;;6.90;;
65759;SDS011;52496;51.082;5.066;2023-06-14T04:45:07;11.32;;;6.43;;
65759;SDS011;52496;51.082;5.066;2023-06-14T04:47:39;11.25;;;7.20;;
65759;SDS011;52496;51.082;5.066;2023-06-14T04:50:10;9.18;;;6.03;;
65759;SDS011;52496;51.082;5.066;2023-06-14T04:52:43;11.85;;;6.85;;
65759;SDS011;52496;51.082;5.066;2023-06-14T04:55:14;13.05;;;8.43;;
65759;SDS011;52496;51.082;5.066;2023-06-14T04:57:44;12.35;;;7.28;;
65759;SDS011;52496;51.082;5.066;2023-06-14T05:00:15;9.93;;;6.70;;
65759;SDS011;52496;51.082;5.066;2023-06-14T05:02:46;11.95;;;7.10;;
65759;SDS011;52496;51.082;5.066;2023-06-14T05:05:17;10.50;;;6.80;;
65759;SDS011;52496;51.082;5.066;2023-06-14T05:07:47;12.82;;;6.97;;
65759;SDS011;52496;51.082;5.066;2023-06-14T05:10:20;12.00;;;7.05;;
65759;SDS011;52496;51.082;5.066;2023-06-14T05:12:51;13.27;;;6.97;;
65759;SDS011;52496;51.082;5.066;2023-06-14T05:15:22;11.02;;;6.68;;
65759;SDS011;52496;51.082;5.066;2023-06-14T05:17:55;12.68;;;7.18;;
65759;SDS011;52496;51.082;5.066;2023-06-14T05:20:26;15.18;;;7.72;;
65759;SDS011;52496;51.082;5.066;2023-06-14T05:22:56;11.77;;;7.80;;
65759;SDS011;52496;51.082;5.066;2023-06-14T05:25:28;14.40;;;7.22;;
65759;SDS011;52496;51.082;5.066;2023-06-14T05:27:58;11.50;;;6.85;;
65759;SDS011;52496;51.082;5.066;2023-06-14T05:30:28;14.30;;;8.73;;
65759;SDS011;52496;51.082;5.066;2023-06-14T05:33:00;12.98;;;7.53;;
65759;SDS011;52496;51.082;5.066;2023-06-14T05:35:31;13.18;;;8.05;;
65759;SDS011;52496;51.082;5.066;2023-06-14T05:38:05;13.60;;;7.50;;
65759;SDS011;52496;51.082;5.066;2023-06-14T05:40:35;11.68;;;7.60;;
65759;SDS011;52496;51.082;5.066;2023-06-14T05:43:06;11.93;;;7.18;;
65759;SDS011;52496;51.082;5.066;2023-06-14T05:45:36;11.23;;;7.72;;
65759;SDS011;52496;51.082;5.066;2023-06-14T05:48:07;12.35;;;7.30;;
65759;SDS011;52496;51.082;5.066;2023-06-14T05:50:37;10.40;;;7.32;;
65759;SDS011;52496;51.082;5.066;2023-06-14T05:53:07;12.30;;;7.68;;
65759;SDS011;52496;51.082;5.066;2023-06-14T05:55:38;11.48;;;7.10;;
65759;SDS011;52496;51.082;5.066;2023-06-14T05:58:08;10.32;;;7.00;;
65759;SDS011;52496;51.082;5.066;2023-06-14T06:00:41;10.63;;;7.30;;
65759;SDS011;52496;51.082;5.066;2023-06-14T06:03:11;13.45;;;7.80;;
65759;SDS011;52496;51.082;5.066;2023-06-14T06:05:43;14.85;;;7.38;;
65759;SDS011;52496;51.082;5.066;2023-06-14T06:08:13;9.95;;;6.45;;
65759;SDS011;52496;51.082;5.066;2023-06-14T06:10:44;12.45;;;7.13;;
65759;SDS011;52496;51.082;5.066;2023-06-14T06:13:14;11.23;;;7.18;;
65759;SDS011;52496;51.082;5.066;2023-06-14T06:15:45;11.43;;;7.25;;
65759;SDS011;52496;51.082;5.066;2023-06-14T06:18:16;11.35;;;7.05;;
65759;SDS011;52496;51.082;5.066;2023-06-14T06:20:47;12.57;;;7.57;;
65759;SDS011;52496;51.082;5.066;2023-06-14T06:23:17;12.68;;;6.70;;
65759;SDS011;52496;51.082;5.066;2023-06-14T06:25:48;10.07;;;7.35;;
65759;SDS011;52496;51.082;5.066;2023-06-14T06:28:23;11.23;;;6.82;;
65759;SDS011;52496;51.082;5.066;2023-06-14T06:30:53;9.80;;;7.13;;
65759;SDS011;52496;51.082;5.066;2023-06-14T06:33:24;14.45;;;7.07;;
65759;SDS011;52496;51.082;5.066;2023-06-14T06:35:55;12.10;;;7.35;;
65759;SDS011;52496;51.082;5.066;2023-06-14T06:38:25;10.00;;;6.75;;
65759;SDS011;52496;51.082;5.066;2023-06-14T06:40:55;10.70;;;6.95;;
65759;SDS011;52496;51.082;5.066;2023-06-14T06:43:27;11.40;;;7.05;;
65759;SDS011;52496;51.082;5.066;2023-06-14T06:45:57;14.65;;;7.63;;
65759;SDS011;52496;51.082;5.066;2023-06-14T06:48:27;12.43;;;6.75;;
65759;SDS011;52496;51.082;5.066;2023-06-14T06:50:58;10.85;;;6.60;;
65759;SDS011;52496;51.082;5.066;2023-06-14T06:53:29;15.05;;;7.25;;
65759;SDS011;52496;51.082;5.066;2023-06-14T06:55:59;10.75;;;6.72;;
65759;SDS011;52496;51.082;5.066;2023-06-14T06:58:30;11.75;;;7.28;;
65759;SDS011;52496;51.082;5.066;2023-06-14T07:01:00;13.10;;;6.47;;
65759;SDS011;52496;51.082;5.066;2023-06-14T07:03:31;8.95;;;6.50;;
65759;SDS011;52496;51.082;5.066;2023-06-14T07:06:01;13.32;;;6.60;;
65759;SDS011;52496;51.082;5.066;2023-06-14T07:08:31;10.48;;;6.68;;
65759;SDS011;52496;51.082;5.066;2023-06-14T07:11:02;11.43;;;6.68;;
65759;SDS011;52496;51.082;5.066;2023-06-14T07:13:32;13.82;;;7.10;;
65759;SDS011;52496;51.082;5.066;2023-06-14T07:16:04;10.05;;;6.22;;
65759;SDS011;52496;51.082;5.066;2023-06-14T07:18:34;11.57;;;6.45;;
65759;SDS011;52496;51.082;5.066;2023-06-14T07:21:05;10.27;;;6.85;;
65759;SDS011;52496;51.082;5.066;2023-06-14T07:34:06;9.23;;;6.00;;
65759;SDS011;52496;51.082;5.066;2023-06-14T07:36:37;11.05;;;6.28;;
65759;SDS011;52496;51.082;5.066;2023-06-14T07:39:08;10.55;;;6.53;;
65759;SDS011;52496;51.082;5.066;2023-06-14T07:41:38;9.90;;;6.28;;
65759;SDS011;52496;51.082;5.066;2023-06-14T07:44:09;9.23;;;5.72;;
65759;SDS011;52496;51.082;5.066;2023-06-14T07:46:40;9.95;;;6.20;;
65759;SDS011;52496;51.082;5.066;2023-06-14T07:49:11;9.35;;;5.78;;
65759;SDS011;52496;51.082;5.066;2023-06-14T07:51:42;11.30;;;5.95;;
65759;SDS011;52496;51.082;5.066;2023-06-14T07:54:14;11.63;;;6.35;;
65759;SDS011;52496;51.082;5.066;2023-06-14T07:56:44;9.32;;;5.88;;
65759;SDS011;52496;51.082;5.066;2023-06-14T07:59:16;10.45;;;5.78;;
65759;SDS011;52496;51.082;5.066;2023-06-14T08:01:46;9.30;;;5.22;;
65759;SDS011;52496;51.082;5.066;2023-06-14T08:04:18;7.80;;;5.40;;
65759;SDS011;52496;51.082;5.066;2023-06-14T08:06:48;8.85;;;5.40;;
65759;SDS011;52496;51.082;5.066;2023-06-14T08:09:19;11.18;;;5.22;;
65759;SDS011;52496;51.082;5.066;2023-06-14T08:11:49;9.35;;;4.97;;
65759;SDS011;52496;51.082;5.066;2023-06-14T08:14:20;8.93;;;5.18;;
65759;SDS011;52496;51.082;5.066;2023-06-14T08:16:50;9.48;;;5.00;;
65759;SDS011;52496;51.082;5.066;2023-06-14T08:19:21;9.23;;;4.93;;
65759;SDS011;52496;51.082;5.066;2023-06-14T08:21:51;12.15;;;5.28;;
65759;SDS011;52496;51.082;5.066;2023-06-14T08:24:24;10.57;;;5.22;;
65759;SDS011;52496;51.082;5.066;2023-06-14T08:26:55;8.63;;;5.28;;
65759;SDS011;52496;51.082;5.066;2023-06-14T08:29:26;9.77;;;4.88;;
65759;SDS011;52496;51.082;5.066;2023-06-14T08:31:59;9.18;;;5.60;;
65759;SDS011;52496;51.082;5.066;2023-06-14T08:34:30;12.70;;;5.50;;
65759;SDS011;52496;51.082;5.066;2023-06-14T08:37:03;6.53;;;4.75;;
65759;SDS011;52496;51.082;5.066;2023-06-14T08:39:35;12.73;;;5.15;;
65759;SDS011;52496;51.082;5.066;2023-06-14T08:42:06;10.82;;;5.03;;
65759;SDS011;52496;51.082;5.066;2023-06-14T08:44:38;7.95;;;4.70;;
65759;SDS011;52496;51.082;5.066;2023-06-14T08:47:09;8.68;;;5.45;;
65759;SDS011;52496;51.082;5.066;2023-06-14T08:49:41;11.60;;;4.53;;
65759;SDS011;52496;51.082;5.066;2023-06-14T08:52:17;10.20;;;4.53;;
65759;SDS011;52496;51.082;5.066;2023-06-14T08:54:51;13.02;;;5.07;;
65759;SDS011;52496;51.082;5.066;2023-06-14T08:57:21;10.45;;;5.05;;
65759;SDS011;52496;51.082;5.066;2023-06-14T08:59:51;9.07;;;4.72;;
65759;SDS011;52496;51.082;5.066;2023-06-14T09:02:23;9.57;;;4.80;;
65759;SDS011;52496;51.082;5.066;2023-06-14T09:04:55;8.63;;;4.63;;
65759;SDS011;52496;51.082;5.066;2023-06-14T09:07:29;7.40;;;4.13;;
65759;SDS011;52496;51.082;5.066;2023-06-14T09:10:09;9.00;;;4.93;;
65759;SDS011;52496;51.082;5.066;2023-06-14T09:12:41;8.93;;;5.00;;
65759;SDS011;52496;51.082;5.066;2023-06-14T09:15:12;11.20;;;4.57;;
65759;SDS011;52496;51.082;5.066;2023-06-14T09:17:44;8.15;;;4.32;;
65759;SDS011;52496;51.082;5.066;2023-06-14T09:20:15;8.20;;;4.20;;
65759;SDS011;52496;51.082;5.066;2023-06-14T09:22:48;8.60;;;3.85;;
65759;SDS011;52496;51.082;5.066;2023-06-14T09:25:19;10.45;;;4.40;;
65759;SDS011;52496;51.082;5.066;2023-06-14T09:27:50;8.23;;;3.95;;
65759;SDS011;52496;51.082;5.066;2023-06-14T09:30:21;7.47;;;4.10;;
65759;SDS011;52496;51.082;5.066;2023-06-14T09:32:52;5.55;;;3.55;;
65759;SDS011;52496;51.082;5.066;2023-06-14T09:35:23;9.60;;;4.10;;
65759;SDS011;52496;51.082;5.066;2023-06-14T09:37:53;11.82;;;4.00;;
65759;SDS011;52496;51.082;5.066;2023-06-14T09:40:29;6.32;;;4.05;;
65759;SDS011;52496;51.082;5.066;2023-06-14T09:43:06;8.23;;;4.32;;
65759;SDS011;52496;51.082;5.066;2023-06-14T09:45:39;7.03;;;3.92;;
65759;SDS011;52496;51.082;5.066;2023-06-14T09:48:10;13.15;;;4.10;;
65759;SDS011;52496;51.082;5.066;2023-06-14T09:50:41;7.32;;;4.20;;
65759;SDS011;52496;51.082;5.066;2023-06-14T09:53:12;9.30;;;4.15;;
65759;SDS011;52496;51.082;5.066;2023-06-14T09:55:44;6.57;;;3.78;;
65759;SDS011;52496;51.082;5.066;2023-06-14T09:58:15;7.43;;;3.63;;
65759;SDS011;52496;51.082;5.066;2023-06-14T10:00:47;6.47;;;3.88;;
65759;SDS011;52496;51.082;5.066;2023-06-14T10:03:24;6.75;;;3.85;;
65759;SDS011;52496;51.082;5.066;2023-06-14T10:05:58;8.65;;;3.83;;
65759;SDS011;52496;51.082;5.066;2023-06-14T10:08:33;7.38;;;3.75;;
65759;SDS011;52496;51.082;5.066;2023-06-14T10:11:07;9.65;;;3.95;;
65759;SDS011;52496;51.082;5.066;2023-06-14T10:13:37;6.93;;;3.60;;
65759;SDS011;52496;51.082;5.066;2023-06-14T10:19:21;8.88;;;3.00;;
65759;SDS011;52496;51.082;5.066;2023-06-14T10:22:09;5.97;;;3.38;;
65759;SDS011;52496;51.082;5.066;2023-06-14T10:24:45;6.63;;;3.20;;
65759;SDS011;52496;51.082;5.066;2023-06-14T10:27:15;12.25;;;3.15;;
65759;SDS011;52496;51.082;5.066;2023-06-14T10:32:24;5.53;;;3.30;;
65759;SDS011;52496;51.082;5.066;2023-06-14T10:37:35;9.43;;;3.33;;
65759;SDS011;52496;51.082;5.066;2023-06-14T10:40:06;7.18;;;3.05;;
65759;SDS011;52496;51.082;5.066;2023-06-14T10:42:38;5.68;;;3.13;;
65759;SDS011;52496;51.082;5.066;2023-06-14T10:45:22;5.90;;;3.15;;
65759;SDS011;52496;51.082;5.066;2023-06-14T10:47:52;5.85;;;3.35;;
65759;SDS011;52496;51.082;5.066;2023-06-14T10:50:27;6.18;;;3.25;;
65759;SDS011;52496;51.082;5.066;2023-06-14T10:53:19;5.53;;;2.97;;
65759;SDS011;52496;51.082;5.066;2023-06-14T10:55:53;7.35;;;3.95;;
65759;SDS011;52496;51.082;5.066;2023-06-14T10:58:26;6.05;;;3.53;;
65759;SDS011;52496;51.082;5.066;2023-06-14T11:00:56;5.95;;;3.10;;
65759;SDS011;52496;51.082;5.066;2023-06-14T11:03:43;8.75;;;3.13;;
65759;SDS011;52496;51.082;5.066;2023-06-14T11:06:24;5.05;;;2.90;;
65759;SDS011;52496;51.082;5.066;2023-06-14T11:12:11;9.40;;;3.63;;
65759;SDS011;52496;51.082;5.066;2023-06-14T11:14:45;6.82;;;2.85;;
65759;SDS011;52496;51.082;5.066;2023-06-14T11:17:17;8.32;;;2.90;;
65759;SDS011;52496;51.082;5.066;2023-06-14T11:19:47;8.63;;;3.40;;
65759;SDS011;52496;51.082;5.066;2023-06-14T11:22:18;8.77;;;3.33;;
65759;SDS011;52496;51.082;5.066;2023-06-14T11:24:48;7.70;;;3.58;;
65759;SDS011;52496;51.082;5.066;2023-06-14T11:27:19;6.43;;;3.10;;
65759;SDS011;52496;51.082;5.066;2023-06-14T11:29:49;5.47;;;2.88;;
65759;SDS011;52496;51.082;5.066;2023-06-14T11:32:20;5.88;;;2.53;;
65759;SDS011;52496;51.082;5.066;2023-06-14T11:34:50;5.88;;;2.58;;
65759;SDS011;52496;51.082;5.066;2023-06-14T11:37:21;4.95;;;2.65;;
65759;SDS011;52496;51.082;5.066;2023-06-14T11:39:51;5.45;;;2.40;;
65759;SDS011;52496;51.082;5.066;2023-06-14T11:42:22;7.93;;;2.20;;
65759;SDS011;52496;51.082;5.066;2023-06-14T11:44:53;5.18;;;2.58;;
65759;SDS011;52496;51.082;5.066;2023-06-14T11:47:24;5.25;;;2.28;;
65759;SDS011;52496;51.082;5.066;2023-06-14T11:49:54;9.95;;;2.22;;
65759;SDS011;52496;51.082;5.066;2023-06-14T11:52:25;4.20;;;2.17;;
65759;SDS011;52496;51.082;5.066;2023-06-14T11:54:55;8.45;;;2.45;;
65759;SDS011;52496;51.082;5.066;2023-06-14T11:57:27;4.95;;;2.35;;
65759;SDS011;52496;51.082;5.066;2023-06-14T11:59:57;3.88;;;2.22;;
65759;SDS011;52496;51.082;5.066;2023-06-14T12:02:28;4.38;;;2.55;;
65759;SDS011;52496;51.082;5.066;2023-06-14T12:05:04;6.07;;;2.40;;
65759;SDS011;52496;51.082;5.066;2023-06-14T12:07:40;4.10;;;2.10;;
65759;SDS011;52496;51.082;5.066;2023-06-14T12:10:11;9.25;;;2.65;;
65759;SDS011;52496;51.082;5.066;2023-06-14T12:12:42;3.85;;;2.05;;
65759;SDS011;52496;51.082;5.066;2023-06-14T12:15:13;4.63;;;2.38;;
65759;SDS011;52496;51.082;5.066;2023-06-14T12:17:44;6.75;;;1.95;;
65759;SDS011;52496;51.082;5.066;2023-06-14T12:20:15;5.22;;;2.33;;
65759;SDS011;52496;51.082;5.066;2023-06-14T12:22:52;7.80;;;2.38;;
65759;SDS011;52496;51.082;5.066;2023-06-14T12:25:26;6.35;;;2.38;;
65759;SDS011;52496;51.082;5.066;2023-06-14T12:27:59;6.07;;;2.15;;
65759;SDS011;52496;51.082;5.066;2023-06-14T12:30:37;6.15;;;2.30;;
65759;SDS011;52496;51.082;5.066;2023-06-14T12:33:08;5.15;;;2.25;;
65759;SDS011;52496;51.082;5.066;2023-06-14T12:35:40;7.10;;;2.35;;
65759;SDS011;52496;51.082;5.066;2023-06-14T12:38:15;5.32;;;2.13;;
65759;SDS011;52496;51.082;5.066;2023-06-14T12:40:46;3.50;;;2.08;;
65759;SDS011;52496;51.082;5.066;2023-06-14T12:43:18;5.30;;;2.22;;
65759;SDS011;52496;51.082;5.066;2023-06-14T12:45:48;7.63;;;2.17;;
65759;SDS011;52496;51.082;5.066;2023-06-14T12:48:19;7.38;;;2.10;;
65759;SDS011;52496;51.082;5.066;2023-06-14T12:50:50;3.50;;;2.08;;
65759;SDS011;52496;51.082;5.066;2023-06-14T12:53:22;6.05;;;2.67;;
65759;SDS011;52496;51.082;5.066;2023-06-14T12:55:55;11.85;;;2.78;;
65759;SDS011;52496;51.082;5.066;2023-06-14T12:58:26;5.35;;;2.63;;
65759;SDS011;52496;51.082;5.066;2023-06-14T13:01:00;4.43;;;2.33;;
65759;SDS011;52496;51.082;5.066;2023-06-14T13:03:34;5.18;;;2.40;;
65759;SDS011;52496;51.082;5.066;2023-06-14T13:06:06;8.48;;;3.10;;
65759;SDS011;52496;51.082;5.066;2023-06-14T13:08:39;9.10;;;2.58;;
65759;SDS011;52496;51.082;5.066;2023-06-14T13:11:10;5.15;;;2.50;;
65759;SDS011;52496;51.082;5.066;2023-06-14T13:13:41;8.13;;;2.22;;
65759;SDS011;52496;51.082;5.066;2023-06-14T13:16:14;6.32;;;2.60;;
65759;SDS011;52496;51.082;5.066;2023-06-14T13:18:45;6.00;;;2.33;;
65759;SDS011;52496;51.082;5.066;2023-06-14T13:21:17;4.65;;;2.30;;
65759;SDS011;52496;51.082;5.066;2023-06-14T13:23:48;6.47;;;2.30;;
65759;SDS011;52496;51.082;5.066;2023-06-14T13:26:19;6.78;;;2.80;;
65759;SDS011;52496;51.082;5.066;2023-06-14T13:28:50;6.88;;;2.83;;
65759;SDS011;52496;51.082;5.066;2023-06-14T13:31:24;5.32;;;2.30;;
65759;SDS011;52496;51.082;5.066;2023-06-14T13:33:55;3.47;;;2.00;;
65759;SDS011;52496;51.082;5.066;2023-06-14T13:36:32;7.35;;;2.42;;
65759;SDS011;52496;51.082;5.066;2023-06-14T13:39:09;5.55;;;2.40;;
65759;SDS011;52496;51.082;5.066;2023-06-14T13:41:49;4.68;;;2.03;;
65759;SDS011;52496;51.082;5.066;2023-06-14T13:44:20;6.40;;;2.40;;
65759;SDS011;52496;51.082;5.066;2023-06-14T13:46:54;6.45;;;2.40;;
65759;SDS011;52496;51.082;5.066;2023-06-14T13:49:28;4.50;;;2.30;;
65759;SDS011;52496;51.082;5.066;2023-06-14T13:51:59;5.38;;;2.25;;
65759;SDS011;52496;51.082;5.066;2023-06-14T13:54:30;8.93;;;2.40;;
65759;SDS011;52496;51.082;5.066;2023-06-14T13:57:01;4.97;;;1.95;;
65759;SDS011;52496;51.082;5.066;2023-06-14T13:59:32;8.75;;;2.20;;
65759;SDS011;52496;51.082;5.066;2023-06-14T14:02:02;5.57;;;2.50;;
65759;SDS011;52496;51.082;5.066;2023-06-14T14:04:34;7.03;;;2.20;;
65759;SDS011;52496;51.082;5.066;2023-06-14T14:07:08;5.43;;;2.33;;
65759;SDS011;52496;51.082;5.066;2023-06-14T14:09:42;4.20;;;2.00;;
65759;SDS011;52496;51.082;5.066;2023-06-14T14:12:13;5.28;;;2.22;;
65759;SDS011;52496;51.082;5.066;2023-06-14T14:14:47;4.07;;;2.38;;
65759;SDS011;52496;51.082;5.066;2023-06-14T14:17:19;6.82;;;2.60;;
65759;SDS011;52496;51.082;5.066;2023-06-14T14:19:50;4.50;;;2.20;;
65759;SDS011;52496;51.082;5.066;2023-06-14T14:22:22;5.93;;;2.83;;
65759;SDS011;52496;51.082;5.066;2023-06-14T14:24:53;6.88;;;2.40;;
65759;SDS011;52496;51.082;5.066;2023-06-14T14:27:28;3.60;;;2.13;;
65759;SDS011;52496;51.082;5.066;2023-06-14T14:30:01;4.68;;;2.05;;
65759;SDS011;52496;51.082;5.066;2023-06-14T14:32:32;3.42;;;2.15;;
65759;SDS011;52496;51.082;5.066;2023-06-14T14:35:04;4.20;;;2.03;;
65759;SDS011;52496;51.082;5.066;2023-06-14T14:37:41;6.80;;;2.40;;
65759;SDS011;52496;51.082;5.066;2023-06-14T14:40:13;5.35;;;2.30;;
65759;SDS011;52496;51.082;5.066;2023-06-14T14:42:47;4.60;;;2.03;;
65759;SDS011;52496;51.082;5.066;2023-06-14T14:45:19;3.85;;;2.00;;
65759;SDS011;52496;51.082;5.066;2023-06-14T14:47:51;8.10;;;2.03;;
65759;SDS011;52496;51.082;5.066;2023-06-14T14:50:22;3.33;;;1.98;;
65759;SDS011;52496;51.082;5.066;2023-06-14T14:52:53;3.88;;;1.88;;
65759;SDS011;52496;51.082;5.066;2023-06-14T14:55:24;5.65;;;2.20;;
65759;SDS011;52496;51.082;5.066;2023-06-14T14:57:54;3.85;;;2.00;;
65759;SDS011;52496;51.082;5.066;2023-06-14T15:00:29;4.60;;;2.08;;
65759;SDS011;52496;51.082;5.066;2023-06-14T15:03:00;4.70;;;2.45;;
65759;SDS011;52496;51.082;5.066;2023-06-14T15:05:31;4.65;;;2.00;;
65759;SDS011;52496;51.082;5.066;2023-06-14T15:08:02;4.95;;;2.13;;
65759;SDS011;52496;51.082;5.066;2023-06-14T15:10:33;2.70;;;1.92;;
65759;SDS011;52496;51.082;5.066;2023-06-14T15:13:04;4.30;;;1.92;;
65759;SDS011;52496;51.082;5.066;2023-06-14T15:15:35;2.92;;;1.92;;
65759;SDS011;52496;51.082;5.066;2023-06-14T15:18:06;3.00;;;1.70;;
65759;SDS011;52496;51.082;5.066;2023-06-14T15:20:36;5.28;;;2.03;;
65759;SDS011;52496;51.082;5.066;2023-06-14T15:23:07;4.45;;;1.63;;
65759;SDS011;52496;51.082;5.066;2023-06-14T15:25:37;3.35;;;1.83;;
65759;SDS011;52496;51.082;5.066;2023-06-14T15:28:08;8.35;;;1.92;;
65759;SDS011;52496;51.082;5.066;2023-06-14T15:30:39;5.10;;;1.98;;
65759;SDS011;52496;51.082;5.066;2023-06-14T15:33:10;2.67;;;1.58;;
65759;SDS011;52496;51.082;5.066;2023-06-14T15:35:40;5.53;;;2.13;;
65759;SDS011;52496;51.082;5.066;2023-06-14T15:38:11;3.63;;;1.80;;